sensor_id;sensor_type;location;lat;lon;timestamp;temperature;humidity
5086;DHT22;4715;51.660;7.082;2023-01-10T00:00:00;6.00;99.90
5086;DHT22;4715;51.660;7.082;2023-01-10T00:02:23;6.00;99.90
5086;DHT22;4715;51.660;7.082;2023-01-10T00:04:45;6.00;99.90
5086;DHT22;4715;51.660;7.082;2023-01-10T00:07:07;6.00;99.90
5086;DHT22;4715;51.660;7.082;2023-01-10T00:09:28;6.00;99.90
5086;DHT22;4715;51.660;7.082;2023-01-10T00:11:50;6.00;99.90
5086;DHT22;4715;51.660;7.082;2023-01-10T00:14:26;6.10;99.90
5086;DHT22;4715;51.660;7.082;2023-01-10T00:16:51;6.10;99.90
5086;DHT22;4715;51.660;7.082;2023-01-10T00:19:14;6.10;99.90
5086;DHT22;4715;51.660;7.082;2023-01-10T00:21:36;6.10;99.90
5086;DHT22;4715;51.660;7.082;2023-01-10T00:23:59;6.10;99.90
5086;DHT22;4715;51.660;7.082;2023-01-10T00:26:33;6.20;99.90
5086;DHT22;4715;51.660;7.082;2023-01-10T00:28:54;6.20;99.90
5086;DHT22;4715;51.660;7.082;2023-01-10T00:31:16;6.20;99.90
5086;DHT22;4715;51.660;7.082;2023-01-10T00:33:38;6.20;99.90
5086;DHT22;4715;51.660;7.082;2023-01-10T00:36:03;6.20;99.90
5086;DHT22;4715;51.660;7.082;2023-01-10T00:38:25;6.20;99.90
5086;DHT22;4715;51.660;7.082;2023-01-10T00:40:47;6.20;99.90
5086;DHT22;4715;51.660;7.082;2023-01-10T00:43:09;6.20;99.90
5086;DHT22;4715;51.660;7.082;2023-01-10T00:45:48;6.20;99.90
5086;DHT22;4715;51.660;7.082;2023-01-10T00:48:10;6.20;99.90
5086;DHT22;4715;51.660;7.082;2023-01-10T00:50:32;6.20;99.90
5086;DHT22;4715;51.660;7.082;2023-01-10T00:52:55;6.20;99.90
5086;DHT22;4715;51.660;7.082;2023-01-10T00:55:17;6.20;99.90
5086;DHT22;4715;51.660;7.082;2023-01-10T00:57:39;6.10;99.90
5086;DHT22;4715;51.660;7.082;2023-01-10T01:00:04;6.10;99.90
5086;DHT22;4715;51.660;7.082;2023-01-10T01:02:27;6.10;99.90
5086;DHT22;4715;51.660;7.082;2023-01-10T01:04:49;6.10;99.90
5086;DHT22;4715;51.660;7.082;2023-01-10T01:07:10;6.10;99.90
5086;DHT22;4715;51.660;7.082;2023-01-10T01:09:34;6.00;99.90
5086;DHT22;4715;51.660;7.082;2023-01-10T01:12:15;6.00;99.90
5086;DHT22;4715;51.660;7.082;2023-01-10T01:14:37;6.00;99.90
5086;DHT22;4715;51.660;7.082;2023-01-10T01:16:59;6.00;99.90
5086;DHT22;4715;51.660;7.082;2023-01-10T01:19:21;6.00;99.90
5086;DHT22;4715;51.660;7.082;2023-01-10T01:21:43;6.00;99.90
5086;DHT22;4715;51.660;7.082;2023-01-10T01:24:05;6.00;99.90
5086;DHT22;4715;51.660;7.082;2023-01-10T01:26:28;6.00;99.90
5086;DHT22;4715;51.660;7.082;2023-01-10T01:28:50;6.00;99.90
5086;DHT22;4715;51.660;7.082;2023-01-10T01:31:12;6.00;99.90
5086;DHT22;4715;51.660;7.082;2023-01-10T01:33:35;6.00;99.90
5086;DHT22;4715;51.660;7.082;2023-01-10T01:35:56;6.00;99.90
5086;DHT22;4715;51.660;7.082;2023-01-10T01:38:18;6.00;99.90
5086;DHT22;4715;51.660;7.082;2023-01-10T01:40:40;6.00;99.90
5086;DHT22;4715;51.660;7.082;2023-01-10T01:43:03;6.00;99.90
5086;DHT22;4715;51.660;7.082;2023-01-10T01:45:37;6.00;99.90
5086;DHT22;4715;51.660;7.082;2023-01-10T01:48:07;6.00;99.90
5086;DHT22;4715;51.660;7.082;2023-01-10T01:50:33;6.00;99.90
5086;DHT22;4715;51.660;7.082;2023-01-10T01:52:59;6.00;99.90
5086;DHT22;4715;51.660;7.082;2023-01-10T01:55:23;6.00;99.90
5086;DHT22;4715;51.660;7.082;2023-01-10T01:57:47;6.00;99.90
5086;DHT22;4715;51.660;7.082;2023-01-10T02:00:13;6.10;99.90
5086;DHT22;4715;51.660;7.082;2023-01-10T02:02:40;6.10;99.90
5086;DHT22;4715;51.660;7.082;2023-01-10T02:05:06;6.10;99.90
5086;DHT22;4715;51.660;7.082;2023-01-10T02:07:33;6.10;99.90
5086;DHT22;4715;51.660;7.082;2023-01-10T02:09:59;6.10;99.90
5086;DHT22;4715;51.660;7.082;2023-01-10T02:12:23;6.10;99.90
5086;DHT22;4715;51.660;7.082;2023-01-10T02:14:48;6.10;99.90
5086;DHT22;4715;51.660;7.082;2023-01-10T02:17:12;6.10;99.90
5086;DHT22;4715;51.660;7.082;2023-01-10T02:19:42;6.10;99.90
5086;DHT22;4715;51.660;7.082;2023-01-10T02:22:41;6.10;99.90
5086;DHT22;4715;51.660;7.082;2023-01-10T02:28:33;6.10;99.90
5086;DHT22;4715;51.660;7.082;2023-01-10T02:31:24;6.10;99.90
5086;DHT22;4715;51.660;7.082;2023-01-10T02:33:55;6.10;99.90
5086;DHT22;4715;51.660;7.082;2023-01-10T02:36:28;6.10;99.90
5086;DHT22;4715;51.660;7.082;2023-01-10T02:38:59;6.10;99.90
5086;DHT22;4715;51.660;7.082;2023-01-10T02:41:27;6.20;99.90
5086;DHT22;4715;51.660;7.082;2023-01-10T02:43:55;6.20;99.90
5086;DHT22;4715;51.660;7.082;2023-01-10T02:46:21;6.10;99.90
5086;DHT22;4715;51.660;7.082;2023-01-10T02:48:46;6.10;99.90
5086;DHT22;4715;51.660;7.082;2023-01-10T02:51:16;6.10;99.90
5086;DHT22;4715;51.660;7.082;2023-01-10T02:53:40;6.10;99.90
5086;DHT22;4715;51.660;7.082;2023-01-10T02:56:28;6.10;99.90
5086;DHT22;4715;51.660;7.082;2023-01-10T02:59:25;6.10;99.90
5086;DHT22;4715;51.660;7.082;2023-01-10T03:01:54;6.10;99.90
5086;DHT22;4715;51.660;7.082;2023-01-10T03:04:24;6.10;99.90
5086;DHT22;4715;51.660;7.082;2023-01-10T03:06:54;6.10;99.90
5086;DHT22;4715;51.660;7.082;2023-01-10T03:09:22;6.10;99.90
5086;DHT22;4715;51.660;7.082;2023-01-10T03:11:47;6.10;99.90
5086;DHT22;4715;51.660;7.082;2023-01-10T03:14:16;6.10;99.90
5086;DHT22;4715;51.660;7.082;2023-01-10T03:16:40;6.20;99.90
5086;DHT22;4715;51.660;7.082;2023-01-10T03:19:08;6.20;99.90
5086;DHT22;4715;51.660;7.082;2023-01-10T03:21:32;6.20;99.90
5086;DHT22;4715;51.660;7.082;2023-01-10T03:24:15;6.20;99.90
5086;DHT22;4715;51.660;7.082;2023-01-10T03:26:44;6.10;99.90
5086;DHT22;4715;51.660;7.082;2023-01-10T03:29:10;6.10;99.90
5086;DHT22;4715;51.660;7.082;2023-01-10T03:31:39;6.10;99.90
5086;DHT22;4715;51.660;7.082;2023-01-10T03:34:02;6.10;99.90
5086;DHT22;4715;51.660;7.082;2023-01-10T03:36:29;6.00;99.90
5086;DHT22;4715;51.660;7.082;2023-01-10T03:38:56;6.00;99.90
5086;DHT22;4715;51.660;7.082;2023-01-10T03:41:25;6.00;99.90
5086;DHT22;4715;51.660;7.082;2023-01-10T03:43:55;6.00;99.90
5086;DHT22;4715;51.660;7.082;2023-01-10T03:46:42;6.00;99.90
5086;DHT22;4715;51.660;7.082;2023-01-10T03:49:07;5.90;99.90
5086;DHT22;4715;51.660;7.082;2023-01-10T03:51:31;5.90;99.90
5086;DHT22;4715;51.660;7.082;2023-01-10T03:53:53;5.90;99.90
5086;DHT22;4715;51.660;7.082;2023-01-10T03:56:16;5.90;99.90
5086;DHT22;4715;51.660;7.082;2023-01-10T03:58:38;5.90;99.90
5086;DHT22;4715;51.660;7.082;2023-01-10T04:01:00;5.90;99.90
5086;DHT22;4715;51.660;7.082;2023-01-10T04:03:22;5.80;99.90
5086;DHT22;4715;51.660;7.082;2023-01-10T04:05:43;5.80;99.90
5086;DHT22;4715;51.660;7.082;2023-01-10T04:08:05;5.80;99.90
5086;DHT22;4715;51.660;7.082;2023-01-10T04:10:27;5.80;99.90
5086;DHT22;4715;51.660;7.082;2023-01-10T04:12:50;5.80;99.90
5086;DHT22;4715;51.660;7.082;2023-01-10T04:15:12;5.70;99.90
5086;DHT22;4715;51.660;7.082;2023-01-10T04:17:34;5.70;99.90
5086;DHT22;4715;51.660;7.082;2023-01-10T04:19:56;5.70;99.90
5086;DHT22;4715;51.660;7.082;2023-01-10T04:22:17;5.70;99.90
5086;DHT22;4715;51.660;7.082;2023-01-10T04:24:39;5.60;99.90
5086;DHT22;4715;51.660;7.082;2023-01-10T04:27:03;5.60;99.90
5086;DHT22;4715;51.660;7.082;2023-01-10T04:29:26;5.60;99.90
5086;DHT22;4715;51.660;7.082;2023-01-10T04:31:48;5.60;99.90
5086;DHT22;4715;51.660;7.082;2023-01-10T04:34:10;5.50;99.90
5086;DHT22;4715;51.660;7.082;2023-01-10T04:36:32;5.50;99.90
5086;DHT22;4715;51.660;7.082;2023-01-10T04:38:54;5.50;99.90
5086;DHT22;4715;51.660;7.082;2023-01-10T04:41:16;5.50;99.90
5086;DHT22;4715;51.660;7.082;2023-01-10T04:43:37;5.50;99.90
5086;DHT22;4715;51.660;7.082;2023-01-10T04:46:00;5.50;99.90
5086;DHT22;4715;51.660;7.082;2023-01-10T04:48:23;5.40;99.90
5086;DHT22;4715;51.660;7.082;2023-01-10T04:50:49;5.40;99.90
5086;DHT22;4715;51.660;7.082;2023-01-10T04:53:11;5.40;99.90
5086;DHT22;4715;51.660;7.082;2023-01-10T04:55:34;5.40;99.90
5086;DHT22;4715;51.660;7.082;2023-01-10T04:57:55;5.50;99.90
5086;DHT22;4715;51.660;7.082;2023-01-10T05:00:18;5.50;99.90
5086;DHT22;4715;51.660;7.082;2023-01-10T05:02:41;5.50;99.90
5086;DHT22;4715;51.660;7.082;2023-01-10T05:05:03;5.50;99.90
5086;DHT22;4715;51.660;7.082;2023-01-10T05:07:25;5.50;99.90
5086;DHT22;4715;51.660;7.082;2023-01-10T05:09:47;5.50;99.90
5086;DHT22;4715;51.660;7.082;2023-01-10T05:12:09;5.50;99.90
5086;DHT22;4715;51.660;7.082;2023-01-10T05:14:31;5.50;99.90
5086;DHT22;4715;51.660;7.082;2023-01-10T05:16:53;5.50;99.90
5086;DHT22;4715;51.660;7.082;2023-01-10T05:19:17;5.50;99.90
5086;DHT22;4715;51.660;7.082;2023-01-10T05:21:39;5.50;99.90
5086;DHT22;4715;51.660;7.082;2023-01-10T05:24:00;5.50;99.90
5086;DHT22;4715;51.660;7.082;2023-01-10T05:26:23;5.50;99.90
5086;DHT22;4715;51.660;7.082;2023-01-10T05:28:45;5.50;99.90
5086;DHT22;4715;51.660;7.082;2023-01-10T05:31:07;5.50;99.90
5086;DHT22;4715;51.660;7.082;2023-01-10T05:33:29;5.50;99.90
5086;DHT22;4715;51.660;7.082;2023-01-10T05:35:52;5.50;99.90
5086;DHT22;4715;51.660;7.082;2023-01-10T05:38:14;5.50;99.90
5086;DHT22;4715;51.660;7.082;2023-01-10T05:40:36;5.50;99.90
5086;DHT22;4715;51.660;7.082;2023-01-10T05:42:58;5.50;99.90
5086;DHT22;4715;51.660;7.082;2023-01-10T05:45:19;5.50;99.90
5086;DHT22;4715;51.660;7.082;2023-01-10T05:47:41;5.50;99.90
5086;DHT22;4715;51.660;7.082;2023-01-10T05:50:05;5.50;99.90
5086;DHT22;4715;51.660;7.082;2023-01-10T05:52:28;5.50;99.90
5086;DHT22;4715;51.660;7.082;2023-01-10T05:54:50;5.50;99.90
5086;DHT22;4715;51.660;7.082;2023-01-10T05:57:12;5.50;99.90
5086;DHT22;4715;51.660;7.082;2023-01-10T05:59:35;5.40;99.90
5086;DHT22;4715;51.660;7.082;2023-01-10T06:01:56;5.40;99.90
5086;DHT22;4715;51.660;7.082;2023-01-10T06:04:18;5.40;99.90
5086;DHT22;4715;51.660;7.082;2023-01-10T06:06:40;5.40;99.90
5086;DHT22;4715;51.660;7.082;2023-01-10T06:09:04;5.40;99.90
5086;DHT22;4715;51.660;7.082;2023-01-10T06:11:26;5.40;99.90
5086;DHT22;4715;51.660;7.082;2023-01-10T06:13:49;5.30;99.90
5086;DHT22;4715;51.660;7.082;2023-01-10T06:16:15;5.30;99.90
5086;DHT22;4715;51.660;7.082;2023-01-10T06:18:36;5.30;99.90
5086;DHT22;4715;51.660;7.082;2023-01-10T06:20:58;5.30;99.90
5086;DHT22;4715;51.660;7.082;2023-01-10T06:23:20;5.30;99.90
5086;DHT22;4715;51.660;7.082;2023-01-10T06:25:43;5.40;99.90
5086;DHT22;4715;51.660;7.082;2023-01-10T06:28:05;5.40;99.90
5086;DHT22;4715;51.660;7.082;2023-01-10T06:30:27;5.40;99.90
5086;DHT22;4715;51.660;7.082;2023-01-10T06:32:53;5.40;99.90
5086;DHT22;4715;51.660;7.082;2023-01-10T06:35:17;5.40;99.90
5086;DHT22;4715;51.660;7.082;2023-01-10T06:37:39;5.40;99.90
5086;DHT22;4715;51.660;7.082;2023-01-10T06:40:01;5.40;99.90
5086;DHT22;4715;51.660;7.082;2023-01-10T06:42:24;5.40;99.90
5086;DHT22;4715;51.660;7.082;2023-01-10T06:44:46;5.30;99.90
5086;DHT22;4715;51.660;7.082;2023-01-10T06:47:08;5.30;99.90
5086;DHT22;4715;51.660;7.082;2023-01-10T06:49:30;5.30;99.90
5086;DHT22;4715;51.660;7.082;2023-01-10T06:51:51;5.30;99.90
5086;DHT22;4715;51.660;7.082;2023-01-10T06:54:13;5.30;99.90
5086;DHT22;4715;51.660;7.082;2023-01-10T06:56:36;5.30;99.90
5086;DHT22;4715;51.660;7.082;2023-01-10T06:59:00;5.30;99.90
5086;DHT22;4715;51.660;7.082;2023-01-10T07:01:22;5.30;99.90
5086;DHT22;4715;51.660;7.082;2023-01-10T07:03:44;5.20;99.90
5086;DHT22;4715;51.660;7.082;2023-01-10T07:06:08;5.30;99.90
5086;DHT22;4715;51.660;7.082;2023-01-10T07:08:31;5.30;99.90
5086;DHT22;4715;51.660;7.082;2023-01-10T07:10:57;5.30;99.90
5086;DHT22;4715;51.660;7.082;2023-01-10T07:13:19;5.30;99.90
5086;DHT22;4715;51.660;7.082;2023-01-10T07:15:43;5.20;99.90
5086;DHT22;4715;51.660;7.082;2023-01-10T07:18:05;5.20;99.90
5086;DHT22;4715;51.660;7.082;2023-01-10T07:20:27;5.20;99.90
5086;DHT22;4715;51.660;7.082;2023-01-10T07:22:52;5.20;99.90
5086;DHT22;4715;51.660;7.082;2023-01-10T07:25:15;5.30;99.90
5086;DHT22;4715;51.660;7.082;2023-01-10T07:27:37;5.20;99.90
5086;DHT22;4715;51.660;7.082;2023-01-10T07:30:03;5.20;99.90
5086;DHT22;4715;51.660;7.082;2023-01-10T07:32:27;5.20;99.90
5086;DHT22;4715;51.660;7.082;2023-01-10T07:34:49;5.20;99.90
5086;DHT22;4715;51.660;7.082;2023-01-10T07:37:11;5.20;99.90
5086;DHT22;4715;51.660;7.082;2023-01-10T07:39:32;5.20;99.90
5086;DHT22;4715;51.660;7.082;2023-01-10T07:41:54;5.20;99.90
5086;DHT22;4715;51.660;7.082;2023-01-10T07:44:16;5.20;99.90
5086;DHT22;4715;51.660;7.082;2023-01-10T07:46:38;5.20;99.90
5086;DHT22;4715;51.660;7.082;2023-01-10T07:49:01;5.20;99.90
5086;DHT22;4715;51.660;7.082;2023-01-10T07:51:23;5.20;99.90
5086;DHT22;4715;51.660;7.082;2023-01-10T07:53:45;5.30;99.90
5086;DHT22;4715;51.660;7.082;2023-01-10T07:56:09;5.30;99.90
5086;DHT22;4715;51.660;7.082;2023-01-10T07:58:31;5.30;99.90
5086;DHT22;4715;51.660;7.082;2023-01-10T08:00:56;5.30;99.90
5086;DHT22;4715;51.660;7.082;2023-01-10T08:03:18;5.30;99.90
5086;DHT22;4715;51.660;7.082;2023-01-10T08:05:43;5.30;99.90
5086;DHT22;4715;51.660;7.082;2023-01-10T08:08:05;5.40;99.90
5086;DHT22;4715;51.660;7.082;2023-01-10T08:10:27;5.40;99.90
5086;DHT22;4715;51.660;7.082;2023-01-10T08:12:49;5.40;99.90
5086;DHT22;4715;51.660;7.082;2023-01-10T08:15:11;5.40;99.90
5086;DHT22;4715;51.660;7.082;2023-01-10T08:17:33;5.40;99.90
5086;DHT22;4715;51.660;7.082;2023-01-10T08:19:54;5.50;99.90
5086;DHT22;4715;51.660;7.082;2023-01-10T08:22:18;5.50;99.90
5086;DHT22;4715;51.660;7.082;2023-01-10T08:24:39;5.50;99.90
5086;DHT22;4715;51.660;7.082;2023-01-10T08:27:01;5.50;99.90
5086;DHT22;4715;51.660;7.082;2023-01-10T08:29:23;5.50;99.90
5086;DHT22;4715;51.660;7.082;2023-01-10T08:31:45;5.50;99.90
5086;DHT22;4715;51.660;7.082;2023-01-10T08:34:07;5.60;99.90
5086;DHT22;4715;51.660;7.082;2023-01-10T08:36:29;5.60;99.90
5086;DHT22;4715;51.660;7.082;2023-01-10T08:38:54;5.60;99.90
5086;DHT22;4715;51.660;7.082;2023-01-10T08:41:16;5.60;99.90
5086;DHT22;4715;51.660;7.082;2023-01-10T08:43:38;5.60;99.90
5086;DHT22;4715;51.660;7.082;2023-01-10T08:46:00;5.70;99.90
5086;DHT22;4715;51.660;7.082;2023-01-10T08:48:22;5.70;99.90
5086;DHT22;4715;51.660;7.082;2023-01-10T08:50:43;5.70;99.90
5086;DHT22;4715;51.660;7.082;2023-01-10T08:53:10;5.70;99.90
5086;DHT22;4715;51.660;7.082;2023-01-10T08:55:34;5.80;99.90
5086;DHT22;4715;51.660;7.082;2023-01-10T08:57:58;5.80;99.90
5086;DHT22;4715;51.660;7.082;2023-01-10T09:00:21;5.80;99.90
5086;DHT22;4715;51.660;7.082;2023-01-10T09:02:43;5.80;99.90
5086;DHT22;4715;51.660;7.082;2023-01-10T09:05:05;5.80;99.90
5086;DHT22;4715;51.660;7.082;2023-01-10T09:07:27;5.90;99.90
5086;DHT22;4715;51.660;7.082;2023-01-10T09:09:49;5.90;99.90
5086;DHT22;4715;51.660;7.082;2023-01-10T09:12:12;5.90;99.90
5086;DHT22;4715;51.660;7.082;2023-01-10T09:14:52;6.00;99.90
5086;DHT22;4715;51.660;7.082;2023-01-10T09:17:13;6.00;99.90
5086;DHT22;4715;51.660;7.082;2023-01-10T09:19:35;6.00;99.90
5086;DHT22;4715;51.660;7.082;2023-01-10T09:21:57;6.00;99.90
5086;DHT22;4715;51.660;7.082;2023-01-10T09:24:19;6.00;99.90
5086;DHT22;4715;51.660;7.082;2023-01-10T09:26:42;6.10;99.90
5086;DHT22;4715;51.660;7.082;2023-01-10T09:29:05;6.10;99.90
5086;DHT22;4715;51.660;7.082;2023-01-10T09:31:27;6.10;99.90
5086;DHT22;4715;51.660;7.082;2023-01-10T09:33:49;6.10;99.90
5086;DHT22;4715;51.660;7.082;2023-01-10T09:36:11;6.20;99.90
5086;DHT22;4715;51.660;7.082;2023-01-10T09:38:34;6.20;99.90
5086;DHT22;4715;51.660;7.082;2023-01-10T09:41:13;6.20;99.90
5086;DHT22;4715;51.660;7.082;2023-01-10T09:43:46;6.20;99.90
5086;DHT22;4715;51.660;7.082;2023-01-10T09:46:18;6.20;99.90
5086;DHT22;4715;51.660;7.082;2023-01-10T09:48:48;6.20;99.90
5086;DHT22;4715;51.660;7.082;2023-01-10T09:51:26;6.20;99.90
5086;DHT22;4715;51.660;7.082;2023-01-10T09:53:50;6.20;99.90
5086;DHT22;4715;51.660;7.082;2023-01-10T09:56:15;6.20;99.90
5086;DHT22;4715;51.660;7.082;2023-01-10T09:58:38;6.20;99.90
5086;DHT22;4715;51.660;7.082;2023-01-10T10:01:04;6.20;99.90
5086;DHT22;4715;51.660;7.082;2023-01-10T10:03:31;6.20;99.90
5086;DHT22;4715;51.660;7.082;2023-01-10T10:05:57;6.20;99.90
5086;DHT22;4715;51.660;7.082;2023-01-10T10:08:19;6.20;99.90
5086;DHT22;4715;51.660;7.082;2023-01-10T10:10:52;6.30;99.90
5086;DHT22;4715;51.660;7.082;2023-01-10T10:13:22;6.30;99.90
5086;DHT22;4715;51.660;7.082;2023-01-10T10:15:48;6.30;99.90
5086;DHT22;4715;51.660;7.082;2023-01-10T10:18:17;6.40;99.90
5086;DHT22;4715;51.660;7.082;2023-01-10T10:20:53;6.40;99.90
5086;DHT22;4715;51.660;7.082;2023-01-10T10:23:34;6.50;99.90
5086;DHT22;4715;51.660;7.082;2023-01-10T10:26:05;6.60;99.90
5086;DHT22;4715;51.660;7.082;2023-01-10T10:31:25;6.80;99.90
5086;DHT22;4715;51.660;7.082;2023-01-10T10:33:57;6.90;99.90
5086;DHT22;4715;51.660;7.082;2023-01-10T10:36:24;7.00;99.90
5086;DHT22;4715;51.660;7.082;2023-01-10T10:38:48;7.10;99.90
5086;DHT22;4715;51.660;7.082;2023-01-10T10:41:16;7.10;99.90
5086;DHT22;4715;51.660;7.082;2023-01-10T10:43:38;7.20;99.90
5086;DHT22;4715;51.660;7.082;2023-01-10T10:46:04;7.20;99.90
5086;DHT22;4715;51.660;7.082;2023-01-10T10:48:29;7.20;99.90
5086;DHT22;4715;51.660;7.082;2023-01-10T10:50:59;7.20;99.90
5086;DHT22;4715;51.660;7.082;2023-01-10T10:53:24;7.20;99.90
5086;DHT22;4715;51.660;7.082;2023-01-10T10:55:46;7.20;99.90
5086;DHT22;4715;51.660;7.082;2023-01-10T10:58:11;7.20;99.90
5086;DHT22;4715;51.660;7.082;2023-01-10T11:00:34;7.20;99.90
5086;DHT22;4715;51.660;7.082;2023-01-10T11:02:59;7.20;99.90
5086;DHT22;4715;51.660;7.082;2023-01-10T11:05:28;7.20;99.90
5086;DHT22;4715;51.660;7.082;2023-01-10T11:07:54;7.20;99.90
5086;DHT22;4715;51.660;7.082;2023-01-10T11:10:22;7.20;99.90
5086;DHT22;4715;51.660;7.082;2023-01-10T11:12:55;7.10;99.90
5086;DHT22;4715;51.660;7.082;2023-01-10T11:15:36;7.10;99.90
5086;DHT22;4715;51.660;7.082;2023-01-10T11:18:04;7.10;99.90
5086;DHT22;4715;51.660;7.082;2023-01-10T11:20:26;7.10;99.90
5086;DHT22;4715;51.660;7.082;2023-01-10T11:22:49;7.10;99.90
5086;DHT22;4715;51.660;7.082;2023-01-10T11:25:14;7.10;99.90
5086;DHT22;4715;51.660;7.082;2023-01-10T11:27:48;7.20;99.90
5086;DHT22;4715;51.660;7.082;2023-01-10T11:30:17;7.20;99.90
5086;DHT22;4715;51.660;7.082;2023-01-10T11:32:50;7.20;99.90
5086;DHT22;4715;51.660;7.082;2023-01-10T11:35:18;7.20;99.90
5086;DHT22;4715;51.660;7.082;2023-01-10T11:37:41;7.20;99.90
5086;DHT22;4715;51.660;7.082;2023-01-10T11:40:20;7.30;99.90
5086;DHT22;4715;51.660;7.082;2023-01-10T11:42:45;7.30;99.90
5086;DHT22;4715;51.660;7.082;2023-01-10T11:45:27;7.30;99.90
5086;DHT22;4715;51.660;7.082;2023-01-10T11:47:53;7.30;99.90
5086;DHT22;4715;51.660;7.082;2023-01-10T11:50:20;7.30;99.90
5086;DHT22;4715;51.660;7.082;2023-01-10T11:52:43;7.40;99.90
5086;DHT22;4715;51.660;7.082;2023-01-10T11:55:06;7.40;99.90
5086;DHT22;4715;51.660;7.082;2023-01-10T11:57:29;7.40;99.90
5086;DHT22;4715;51.660;7.082;2023-01-10T11:59:55;7.40;99.90
5086;DHT22;4715;51.660;7.082;2023-01-10T12:02:22;7.40;99.90
5086;DHT22;4715;51.660;7.082;2023-01-10T12:04:44;7.40;99.90
5086;DHT22;4715;51.660;7.082;2023-01-10T12:07:09;7.40;99.90
5086;DHT22;4715;51.660;7.082;2023-01-10T12:09:37;7.40;99.90
5086;DHT22;4715;51.660;7.082;2023-01-10T12:12:04;7.50;99.90
5086;DHT22;4715;51.660;7.082;2023-01-10T12:14:27;7.50;99.90
5086;DHT22;4715;51.660;7.082;2023-01-10T12:16:58;7.50;99.90
5086;DHT22;4715;51.660;7.082;2023-01-10T12:19:19;7.50;99.90
5086;DHT22;4715;51.660;7.082;2023-01-10T12:21:43;7.50;99.90
5086;DHT22;4715;51.660;7.082;2023-01-10T12:24:10;7.50;99.90
5086;DHT22;4715;51.660;7.082;2023-01-10T12:26:34;7.60;99.90
5086;DHT22;4715;51.660;7.082;2023-01-10T12:29:00;7.60;99.90
5086;DHT22;4715;51.660;7.082;2023-01-10T12:31:25;7.60;99.90
5086;DHT22;4715;51.660;7.082;2023-01-10T12:33:52;7.70;99.90
5086;DHT22;4715;51.660;7.082;2023-01-10T12:36:27;7.70;99.90
5086;DHT22;4715;51.660;7.082;2023-01-10T12:38:58;7.80;99.90
5086;DHT22;4715;51.660;7.082;2023-01-10T12:41:31;7.80;99.90
5086;DHT22;4715;51.660;7.082;2023-01-10T12:44:17;7.80;99.90
5086;DHT22;4715;51.660;7.082;2023-01-10T12:46:43;7.80;99.90
5086;DHT22;4715;51.660;7.082;2023-01-10T12:49:17;7.80;99.90
5086;DHT22;4715;51.660;7.082;2023-01-10T12:51:42;7.90;99.90
5086;DHT22;4715;51.660;7.082;2023-01-10T12:54:13;7.90;99.90
5086;DHT22;4715;51.660;7.082;2023-01-10T12:56:36;8.00;99.90
5086;DHT22;4715;51.660;7.082;2023-01-10T12:59:00;8.00;99.90
5086;DHT22;4715;51.660;7.082;2023-01-10T13:01:28;8.00;99.90
5086;DHT22;4715;51.660;7.082;2023-01-10T13:03:54;8.00;99.90
5086;DHT22;4715;51.660;7.082;2023-01-10T13:06:26;8.10;99.90
5086;DHT22;4715;51.660;7.082;2023-01-10T13:08:50;8.10;99.90
5086;DHT22;4715;51.660;7.082;2023-01-10T13:11:14;8.20;99.90
5086;DHT22;4715;51.660;7.082;2023-01-10T13:13:42;8.20;99.90
5086;DHT22;4715;51.660;7.082;2023-01-10T13:16:21;8.20;99.90
5086;DHT22;4715;51.660;7.082;2023-01-10T13:19:21;8.20;99.90
5086;DHT22;4715;51.660;7.082;2023-01-10T13:21:44;8.20;99.90
5086;DHT22;4715;51.660;7.082;2023-01-10T13:24:17;8.20;99.90
5086;DHT22;4715;51.660;7.082;2023-01-10T13:26:46;8.20;99.90
5086;DHT22;4715;51.660;7.082;2023-01-10T13:29:16;8.20;99.90
5086;DHT22;4715;51.660;7.082;2023-01-10T13:31:39;8.20;99.90
5086;DHT22;4715;51.660;7.082;2023-01-10T13:34:03;8.20;99.90
5086;DHT22;4715;51.660;7.082;2023-01-10T13:36:29;8.20;99.90
5086;DHT22;4715;51.660;7.082;2023-01-10T13:38:54;8.20;99.90
5086;DHT22;4715;51.660;7.082;2023-01-10T13:41:17;8.20;99.90
5086;DHT22;4715;51.660;7.082;2023-01-10T13:44:03;8.20;99.90
5086;DHT22;4715;51.660;7.082;2023-01-10T13:46:44;8.30;99.90
5086;DHT22;4715;51.660;7.082;2023-01-10T13:52:35;8.30;99.90
5086;DHT22;4715;51.660;7.082;2023-01-10T13:55:00;8.30;99.90
5086;DHT22;4715;51.660;7.082;2023-01-10T13:57:49;8.30;99.90
5086;DHT22;4715;51.660;7.082;2023-01-10T14:00:40;8.30;99.90
5086;DHT22;4715;51.660;7.082;2023-01-10T14:03:38;8.30;99.90
5086;DHT22;4715;51.660;7.082;2023-01-10T14:06:01;8.30;99.90
5086;DHT22;4715;51.660;7.082;2023-01-10T14:08:23;8.30;99.90
5086;DHT22;4715;51.660;7.082;2023-01-10T14:10:46;8.30;99.90
5086;DHT22;4715;51.660;7.082;2023-01-10T14:13:24;8.30;99.90
5086;DHT22;4715;51.660;7.082;2023-01-10T14:15:46;8.30;99.90
5086;DHT22;4715;51.660;7.082;2023-01-10T14:18:18;8.30;99.90
5086;DHT22;4715;51.660;7.082;2023-01-10T14:20:42;8.30;99.90
5086;DHT22;4715;51.660;7.082;2023-01-10T14:23:07;8.30;99.90
5086;DHT22;4715;51.660;7.082;2023-01-10T14:25:31;8.30;99.90
5086;DHT22;4715;51.660;7.082;2023-01-10T14:27:55;8.30;99.90
5086;DHT22;4715;51.660;7.082;2023-01-10T14:30:22;8.30;99.90
5086;DHT22;4715;51.660;7.082;2023-01-10T14:32:47;8.30;99.90
5086;DHT22;4715;51.660;7.082;2023-01-10T14:35:16;8.30;99.90
5086;DHT22;4715;51.660;7.082;2023-01-10T14:37:41;8.30;99.90
5086;DHT22;4715;51.660;7.082;2023-01-10T14:40:14;8.30;99.90
5086;DHT22;4715;51.660;7.082;2023-01-10T14:42:40;8.30;99.90
5086;DHT22;4715;51.660;7.082;2023-01-10T14:45:18;8.20;99.90
5086;DHT22;4715;51.660;7.082;2023-01-10T14:47:40;8.30;99.90
5086;DHT22;4715;51.660;7.082;2023-01-10T14:50:03;8.20;99.90
5086;DHT22;4715;51.660;7.082;2023-01-10T14:52:25;8.20;99.90
5086;DHT22;4715;51.660;7.082;2023-01-10T14:54:53;8.20;99.90
5086;DHT22;4715;51.660;7.082;2023-01-10T14:57:17;8.20;99.90
5086;DHT22;4715;51.660;7.082;2023-01-10T14:59:40;8.20;99.90
5086;DHT22;4715;51.660;7.082;2023-01-10T15:02:13;8.20;99.90
5086;DHT22;4715;51.660;7.082;2023-01-10T15:04:36;8.20;99.90
5086;DHT22;4715;51.660;7.082;2023-01-10T15:07:00;8.20;99.90
5086;DHT22;4715;51.660;7.082;2023-01-10T15:09:23;8.20;99.90
5086;DHT22;4715;51.660;7.082;2023-01-10T15:11:45;8.20;99.90
5086;DHT22;4715;51.660;7.082;2023-01-10T15:14:09;8.20;99.90
5086;DHT22;4715;51.660;7.082;2023-01-10T15:16:39;8.20;99.90
5086;DHT22;4715;51.660;7.082;2023-01-10T15:19:02;8.20;99.90
5086;DHT22;4715;51.660;7.082;2023-01-10T15:21:24;8.20;99.90
5086;DHT22;4715;51.660;7.082;2023-01-10T15:23:46;8.10;99.90
5086;DHT22;4715;51.660;7.082;2023-01-10T15:26:11;8.20;99.90
5086;DHT22;4715;51.660;7.082;2023-01-10T15:28:35;8.10;99.90
5086;DHT22;4715;51.660;7.082;2023-01-10T15:30:58;8.10;99.90
5086;DHT22;4715;51.660;7.082;2023-01-10T15:33:24;8.10;99.90
5086;DHT22;4715;51.660;7.082;2023-01-10T15:35:50;8.10;99.90
5086;DHT22;4715;51.660;7.082;2023-01-10T15:38:14;8.10;99.90
5086;DHT22;4715;51.660;7.082;2023-01-10T15:40:38;8.10;99.90
5086;DHT22;4715;51.660;7.082;2023-01-10T15:43:11;8.10;99.90
5086;DHT22;4715;51.660;7.082;2023-01-10T15:45:33;8.10;99.90
5086;DHT22;4715;51.660;7.082;2023-01-10T15:47:58;8.10;99.90
5086;DHT22;4715;51.660;7.082;2023-01-10T15:50:25;8.10;99.90
5086;DHT22;4715;51.660;7.082;2023-01-10T15:52:51;8.10;99.90
5086;DHT22;4715;51.660;7.082;2023-01-10T15:55:33;8.10;99.90
5086;DHT22;4715;51.660;7.082;2023-01-10T15:57:55;8.10;99.90
5086;DHT22;4715;51.660;7.082;2023-01-10T16:00:20;8.00;99.90
5086;DHT22;4715;51.660;7.082;2023-01-10T16:02:42;8.00;99.90
5086;DHT22;4715;51.660;7.082;2023-01-10T16:05:07;8.00;99.90
5086;DHT22;4715;51.660;7.082;2023-01-10T16:07:32;8.00;99.90
5086;DHT22;4715;51.660;7.082;2023-01-10T16:09:58;8.00;99.90
5086;DHT22;4715;51.660;7.082;2023-01-10T16:12:35;8.00;99.90
5086;DHT22;4715;51.660;7.082;2023-01-10T16:15:19;8.00;99.90